Terminal Aerodrome Forecast
Issued by NWS Corpus Christi, TX

Home | Current Version | Previous Version | Text Only | Print | Product List | Glossary On
Versions: 1 2 3 4 5 6 7 8 9 10 11 12 13 14 15 16 17 18
295
FTUS44 KCRP 240530
TAFCRP
TAF
KCRP 240530Z 2406/2506 VRB03KT P6SM BKN090 BKN250
     FM241600 06012KT P6SM BKN070
     FM250000 08006KT P6SM SCT070=

USA.gov is the U.S. government's official web portal to all federal, state and local government web resources and services.